Time;durP1;ratioP1;P1;durP2;ratioP2;P2;SDS_P1;SDS_P2;PMS_P1;PMS_P2;Temp;Humidity;BMP_temperature;BMP_pressure;BME280_temperature;BME280_humidity;BME280_pressure;Samples;Min_cycle;Max_cycle;Signal;HPM_P1;HPM_P2
2023/10/14 00:00:26;;;;;;;13.90;7.70;;;;;;;16.70;91.83;98718.34;10137295;29;20158;-77
2023/10/14 00:05:30;;;;;;;15.90;7.43;;;;;;;16.75;91.40;98677.06;10126517;29;20052;-77
2023/10/14 00:10:35;;;;;;;12.88;6.20;;;;;;;16.71;90.80;98665.81;10130871;29;20071;-76
2023/10/14 00:15:39;;;;;;;16.08;7.07;;;;;;;16.69;91.61;98667.03;10141034;29;20052;-76
2023/10/14 00:20:44;;;;;;;20.40;8.20;;;;;;;16.75;91.18;98674.34;10132963;29;20452;-77
2023/10/14 00:25:46;;;;;;;18.05;7.70;;;;;;;16.77;90.06;98664.13;10140114;29;20538;-78
2023/10/14 00:30:52;;;;;;;12.63;6.53;;;;;;;16.75;89.37;98690.63;10139413;29;20079;-79
2023/10/14 00:35:59;;;;;;;18.95;7.72;;;;;;;16.66;89.70;98673.72;10135066;29;20151;-77
2023/10/14 00:41:02;;;;;;;12.43;6.95;;;;;;;16.80;88.36;98645.56;10139573;29;20174;-78
2023/10/14 00:46:11;;;;;;;15.15;8.18;;;;;;;16.77;89.64;98672.28;10145600;29;20059;-77
2023/10/14 00:51:16;;;;;;;18.73;8.80;;;;;;;16.61;91.55;98675.38;10132565;29;20091;-78
2023/10/14 00:56:27;;;;;;;18.75;8.52;;;;;;;16.59;91.90;98692.69;10145046;29;20052;-78
2023/10/14 01:01:32;;;;;;;19.05;10.07;;;;;;;16.05;98.12;98666.41;10143212;29;20055;-78
2023/10/14 01:06:53;;;;;;;13.68;6.90;;;;;;;15.85;100.00;98671.72;10143136;29;21276;-78
2023/10/14 01:11:56;;;;;;;15.35;8.10;;;;;;;15.15;100.00;98670.78;10141008;29;20120;-78
2023/10/14 01:17:01;;;;;;;14.82;9.90;;;;;;;15.53;100.00;98700.25;10135502;29;21318;-78
2023/10/14 01:22:12;;;;;;;16.80;7.75;;;;;;;15.63;100.00;98687.22;10114121;29;20074;-77
2023/10/14 01:27:16;;;;;;;16.27;9.18;;;;;;;15.89;100.00;98737.13;10132045;29;20287;-77
2023/10/14 01:32:37;;;;;;;20.67;10.30;;;;;;;16.27;98.81;98740.28;10126792;29;20064;-76
2023/10/14 01:37:45;;;;;;;10.10;2.43;;;;;;;13.58;100.00;98815.28;10137370;29;20051;-78
2023/10/14 01:42:48;;;;;;;8.35;3.00;;;;;;;13.40;100.00;98783.22;10131864;29;20067;-76
2023/10/14 01:48:05;;;;;;;6.85;2.58;;;;;;;13.53;100.00;98794.25;10136955;29;20052;-79
2023/10/14 01:53:10;;;;;;;8.25;1.90;;;;;;;13.29;100.00;98824.91;10123746;29;20108;-79
2023/10/14 01:58:21;;;;;;;1.33;1.00;;;;;;;13.05;100.00;98842.94;10125866;29;20060;-78
2023/10/14 02:03:26;;;;;;;4.57;0.80;;;;;;;13.14;100.00;98870.69;10126081;29;20139;-79
2023/10/14 02:08:31;;;;;;;1.67;0.70;;;;;;;12.75;100.00;98903.88;10131001;29;20217;-78
2023/10/14 02:13:36;;;;;;;0.55;0.40;;;;;;;12.41;100.00;98924.84;10140488;29;20059;-78
2023/10/14 02:18:39;;;;;;;2.47;0.63;;;;;;;12.34;100.00;98916.59;10131745;29;20552;-78
2023/10/14 02:23:47;;;;;;;0.20;0.20;;;;;;;11.77;100.00;98897.81;10123291;29;21360;-78
2023/10/14 02:28:52;;;;;;;2.05;0.50;;;;;;;11.30;100.00;98938.75;10129375;29;20106;-78
2023/10/14 02:33:55;;;;;;;2.42;0.38;;;;;;;11.70;100.00;98959.50;10128657;29;20140;-77
2023/10/14 02:39:00;;;;;;;0.63;0.40;;;;;;;11.71;100.00;98978.16;10133529;29;20064;-78
2023/10/14 02:44:19;;;;;;;1.70;0.40;;;;;;;11.65;100.00;99003.00;10131395;29;20063;-78
2023/10/14 02:49:25;;;;;;;2.92;0.70;;;;;;;11.32;100.00;99010.16;10135263;29;20292;-78
2023/10/14 02:54:33;;;;;;;0.93;0.55;;;;;;;11.38;100.00;99028.34;10123735;29;20059;-79
2023/10/14 02:59:38;;;;;;;0.90;0.50;;;;;;;11.40;100.00;99044.28;10116227;29;20052;-79
2023/10/14 03:04:55;;;;;;;1.50;0.30;;;;;;;11.51;100.00;99065.50;10127240;29;20048;-75
2023/10/14 03:10:10;;;;;;;4.03;0.88;;;;;;;11.31;100.00;99081.06;10125229;29;20588;-76
2023/10/14 03:15:19;;;;;;;2.17;0.70;;;;;;;11.36;100.00;99089.50;10128009;29;20656;-76
2023/10/14 03:25:45;;;;;;;1.35;1.08;;;;;;;11.20;100.00;99111.75;10127443;29;20056;-75
2023/10/14 03:30:55;;;;;;;4.07;1.27;;;;;;;11.47;100.00;99140.28;10134350;29;20120;-75
2023/10/14 03:36:03;;;;;;;3.20;1.30;;;;;;;11.29;100.00;99152.94;10126625;29;20071;-76
2023/10/14 03:41:16;;;;;;;3.63;1.20;;;;;;;10.71;100.00;99183.88;10120373;29;20055;-75
2023/10/14 03:46:29;;;;;;;10.65;2.03;;;;;;;10.10;100.00;99201.56;10135410;29;20059;-78
2023/10/14 03:51:32;;;;;;;;;;;;;;;10.00;100.00;99210.66;10138808;29;20056;-77
2023/10/14 03:56:38;;;;;;;8.02;1.70;;;;;;;10.03;100.00;99208.50;10139032;29;20403;-77
2023/10/14 04:01:44;;;;;;;13.10;1.67;;;;;;;10.45;100.00;99220.56;10128977;29;20652;-77
2023/10/14 04:07:12;;;;;;;5.07;1.48;;;;;;;10.72;100.00;99239.28;10139468;29;20063;-80
2023/10/14 04:12:37;;;;;;;7.80;2.10;;;;;;;10.55;100.00;99251.72;10146538;29;20435;-77
2023/10/14 04:17:40;;;;;;;11.45;2.45;;;;;;;10.20;100.00;99262.38;10136279;29;20058;-78
2023/10/14 04:22:43;;;;;;;12.77;2.38;;;;;;;10.52;100.00;99273.50;10144114;29;20598;-78
2023/10/14 04:33:33;;;;;;;9.73;1.95;;;;;;;10.63;100.00;99296.59;10151484;29;20060;-77
2023/10/14 04:38:39;;;;;;;10.68;1.70;;;;;;;10.17;100.00;99301.09;10167604;28;20147;-78
2023/10/14 04:44:02;;;;;;;13.77;1.55;;;;;;;10.42;100.00;99312.97;10139393;29;20056;-80
2023/10/14 04:49:08;;;;;;;9.35;2.25;;;;;;;10.50;100.00;99328.34;10138451;29;20135;-77
2023/10/14 04:54:15;;;;;;;9.93;1.50;;;;;;;10.22;100.00;99340.91;10135246;29;20067;-77
2023/10/14 04:59:24;;;;;;;9.68;2.05;;;;;;;10.25;100.00;99356.72;10134510;29;20064;-77
2023/10/14 05:04:30;;;;;;;8.82;1.95;;;;;;;10.12;100.00;99373.13;10119666;29;20060;-76
2023/10/14 05:15:19;;;;;;;7.03;1.55;;;;;;;9.91;100.00;99411.75;10478120;23;20609;-75
2023/10/14 05:20:28;;;;;;;10.90;1.48;;;;;;;9.86;100.00;99416.69;10222190;29;20039;-77
2023/10/14 05:25:30;;;;;;;14.55;2.15;;;;;;;9.78;100.00;99427.25;10220399;29;20123;-76
2023/10/14 05:30:35;;;;;;;8.95;1.70;;;;;;;9.94;100.00;99424.03;10196170;29;20127;-76
2023/10/14 05:35:39;;;;;;;15.57;1.73;;;;;;;9.84;100.00;99434.72;10203660;29;20040;-77
2023/10/14 05:40:42;;;;;;;8.95;1.73;;;;;;;9.90;100.00;99450.28;10204439;29;20047;-77
2023/10/14 05:45:46;;;;;;;13.52;1.77;;;;;;;9.76;100.00;99458.72;10217135;29;20494;-78
2023/10/14 05:50:50;;;;;;;11.65;2.95;;;;;;;9.76;100.00;99473.97;10197608;28;20059;-75
2023/10/14 05:56:09;;;;;;;10.70;2.10;;;;;;;9.85;100.00;99489.22;10156771;29;20119;-77
2023/10/14 06:01:16;;;;;;;15.95;2.53;;;;;;;9.64;100.00;99500.09;10169940;28;20050;-77
2023/10/14 06:06:21;;;;;;;9.73;1.90;;;;;;;9.75;100.00;99518.72;10156544;29;20067;-77
2023/10/14 06:11:25;;;;;;;7.15;1.50;;;;;;;9.50;100.00;99537.03;10167187;29;20052;-77
2023/10/14 06:16:31;;;;;;;9.00;1.73;;;;;;;9.71;100.00;99542.28;10166068;29;20531;-77
2023/10/14 06:21:34;;;;;;;11.73;2.40;;;;;;;9.94;100.00;99553.63;10151246;29;20047;-77
2023/10/14 06:26:37;;;;;;;9.10;1.63;;;;;;;9.93;100.00;99573.41;10181078;28;20051;-76
2023/10/14 06:31:41;;;;;;;13.00;2.42;;;;;;;9.93;100.00;99580.63;10170287;28;20056;-76
2023/10/14 06:36:47;;;;;;;8.82;2.40;;;;;;;9.80;100.00;99586.19;10162785;28;20057;-77
2023/10/14 06:41:51;;;;;;;5.28;1.38;;;;;;;10.04;100.00;99604.63;10180732;28;21422;-77
2023/10/14 06:46:56;;;;;;;12.45;2.65;;;;;;;10.57;100.00;99606.03;10168582;28;20118;-76
2023/10/14 06:51:59;;;;;;;11.65;1.70;;;;;;;10.50;100.00;99618.31;10191159;28;20047;-77
2023/10/14 06:57:07;;;;;;;15.45;2.25;;;;;;;10.68;100.00;99611.22;10184576;28;20801;-77
2023/10/14 07:02:11;;;;;;;8.63;1.58;;;;;;;10.71;100.00;99642.34;10167277;29;20061;-77
2023/10/14 07:07:14;;;;;;;13.23;3.55;;;;;;;10.87;100.00;99644.44;10190341;29;20054;-77
2023/10/14 07:12:21;;;;;;;9.95;1.55;;;;;;;10.94;100.00;99662.53;10201427;28;20039;-78
2023/10/14 07:17:25;;;;;;;11.38;2.40;;;;;;;10.73;100.00;99681.50;10177578;29;20052;-78
2023/10/14 07:22:32;;;;;;;9.52;1.90;;;;;;;11.06;100.00;99673.94;10169512;29;20046;-78
2023/10/14 07:27:35;;;;;;;6.20;1.75;;;;;;;11.38;97.17;99699.63;10171094;29;20499;-78
2023/10/14 07:32:43;;;;;;;7.47;1.35;;;;;;;11.24;93.63;99700.94;10184482;28;20102;-78
2023/10/14 07:37:49;;;;;;;9.55;1.90;;;;;;;11.25;94.52;99721.47;10160023;28;20055;-78
2023/10/14 07:42:56;;;;;;;12.63;2.00;;;;;;;11.30;90.30;99719.22;10178140;29;20668;-78
2023/10/14 07:48:08;;;;;;;9.88;2.22;;;;;;;11.46;88.63;99729.34;10172420;28;20070;-77
2023/10/14 07:53:13;;;;;;;9.65;1.77;;;;;;;11.43;86.58;99743.91;10177382;28;20066;-79
2023/10/14 07:58:19;;;;;;;9.95;1.80;;;;;;;11.54;85.22;99753.66;10181788;28;20271;-78
2023/10/14 08:03:24;;;;;;;9.05;1.52;;;;;;;11.16;87.52;99765.34;10173880;28;20112;-79
2023/10/14 08:08:30;;;;;;;7.47;1.73;;;;;;;12.00;85.36;99778.84;10181403;28;20047;-78
2023/10/14 08:13:33;;;;;;;9.82;2.40;;;;;;;12.34;80.25;99789.06;10186444;28;20046;-79
2023/10/14 08:18:41;;;;;;;11.20;1.67;;;;;;;11.98;84.31;99796.16;10193238;28;20670;-78
2023/10/14 08:23:44;;;;;;;12.40;1.60;;;;;;;12.78;77.88;99811.63;10178510;28;20131;-79
2023/10/14 08:28:49;;;;;;;11.93;3.08;;;;;;;12.85;76.70;99814.53;10186004;29;20062;-78
2023/10/14 08:33:53;;;;;;;11.95;1.60;;;;;;;12.58;76.98;99810.88;10184725;29;20505;-78
2023/10/14 08:38:58;;;;;;;10.10;2.08;;;;;;;12.90;75.79;99828.41;10190882;28;20055;-77
2023/10/14 08:44:08;;;;;;;13.77;2.83;;;;;;;12.71;73.49;99836.63;10199482;28;20055;-79
2023/10/14 08:49:13;;;;;;;10.93;1.48;;;;;;;12.65;74.55;99848.03;10181712;28;20063;-78
2023/10/14 08:54:18;;;;;;;10.80;1.35;;;;;;;13.15;71.37;99842.13;10173199;28;20070;-78
2023/10/14 08:59:21;;;;;;;8.20;1.63;;;;;;;12.72;72.99;99844.56;10180867;28;20044;-78
2023/10/14 09:04:30;;;;;;;13.45;1.95;;;;;;;13.02;73.46;99851.44;10197965;28;20062;-79
2023/10/14 09:09:34;;;;;;;12.88;2.00;;;;;;;12.98;71.16;99849.22;10179463;28;20067;-79
2023/10/14 09:14:37;;;;;;;14.07;2.22;;;;;;;13.42;70.64;99849.31;10175327;29;20146;-78
2023/10/14 09:19:45;;;;;;;13.30;2.30;;;;;;;13.34;68.77;99857.31;10184717;29;20063;-77
2023/10/14 09:24:50;;;;;;;11.05;2.45;;;;;;;13.94;68.57;99861.00;10184000;28;20051;-78
2023/10/14 09:29:56;;;;;;;11.65;2.50;;;;;;;14.11;67.04;99864.66;10190290;28;20051;-78
2023/10/14 09:35:01;;;;;;;14.27;1.85;;;;;;;13.90;66.41;99862.34;10182608;28;20072;-79
2023/10/14 09:40:09;;;;;;;12.98;2.20;;;;;;;14.43;63.56;99873.13;10192497;28;20052;-79
2023/10/14 09:45:13;;;;;;;12.50;2.35;;;;;;;15.01;59.30;99883.13;10189238;28;20054;-79
2023/10/14 09:50:17;;;;;;;9.10;1.75;;;;;;;13.05;64.83;99888.03;10191829;28;20055;-78
2023/10/14 09:55:21;;;;;;;5.72;1.98;;;;;;;13.66;63.23;99875.66;10218018;28;20071;-78
2023/10/14 10:00:24;;;;;;;11.75;1.90;;;;;;;14.22;61.77;99895.09;10198230;28;20068;-78
2023/10/14 10:05:39;;;;;;;16.75;2.55;;;;;;;13.86;59.30;99887.94;10197769;28;20062;-78
2023/10/14 10:10:43;;;;;;;4.53;1.33;;;;;;;13.96;61.68;99914.88;10184680;28;20203;-78
2023/10/14 10:15:46;;;;;;;15.18;2.30;;;;;;;13.41;62.21;99939.34;10206093;28;20328;-78
2023/10/14 10:20:56;;;;;;;8.90;1.55;;;;;;;14.53;59.15;99922.47;10211391;28;20067;-78
2023/10/14 10:26:00;;;;;;;13.50;2.25;;;;;;;14.28;58.36;99933.13;10203265;29;20075;-79
2023/10/14 10:31:07;;;;;;;4.88;1.25;;;;;;;14.42;56.50;99920.91;10181001;28;20688;-79
2023/10/14 10:36:13;;;;;;;9.00;1.83;;;;;;;14.41;57.85;99932.72;10182735;28;20126;-79
2023/10/14 10:41:24;;;;;;;10.27;2.53;;;;;;;16.54;54.82;99938.50;10196578;28;20047;-78
2023/10/14 10:46:39;;;;;;;19.55;3.75;;;;;;;15.16;56.21;99942.84;10175832;28;20150;-79
2023/10/14 10:51:51;;;;;;;12.32;3.05;;;;;;;14.80;56.85;99953.88;10201018;28;20059;-78
2023/10/14 10:56:54;;;;;;;13.13;2.05;;;;;;;14.44;56.08;99950.47;10155412;29;20205;-79
2023/10/14 11:02:09;;;;;;;13.80;2.30;;;;;;;13.79;58.69;99950.81;10181259;28;20048;-78
2023/10/14 11:07:14;;;;;;;15.82;2.95;;;;;;;14.88;55.82;99955.78;10171796;29;20161;-78
2023/10/14 11:12:18;;;;;;;12.02;2.33;;;;;;;15.12;54.71;99961.25;10156641;28;20071;-78
2023/10/14 11:17:26;;;;;;;12.15;1.73;;;;;;;16.34;49.98;99943.44;10168759;28;20043;-78
2023/10/14 11:22:32;;;;;;;12.27;3.17;;;;;;;17.29;49.50;99951.59;10169617;29;20070;-78
2023/10/14 11:27:35;;;;;;;12.20;1.42;;;;;;;15.69;51.25;99958.72;10174170;28;20052;-79
2023/10/14 11:32:46;;;;;;;6.35;1.30;;;;;;;16.31;48.97;99947.34;10179503;29;20499;-78
2023/10/14 11:37:55;;;;;;;11.20;1.70;;;;;;;15.60;48.59;99953.44;10164110;28;20051;-79
2023/10/14 11:43:00;;;;;;;12.13;2.03;;;;;;;15.75;49.74;99942.81;10153443;28;20040;-79
2023/10/14 11:48:04;;;;;;;10.63;1.85;;;;;;;15.27;49.93;99958.75;10213486;29;20760;-79
2023/10/14 11:53:08;;;;;;;9.48;1.90;;;;;;;16.22;46.58;99940.22;10222147;29;20040;-79
2023/10/14 11:58:11;;;;;;;3.67;1.35;;;;;;;16.85;45.23;99935.84;10210365;29;20035;-78
2023/10/14 12:03:14;;;;;;;7.75;1.95;;;;;;;16.36;45.13;99934.13;10217575;29;20053;-79
2023/10/14 12:08:22;;;;;;;9.30;1.52;;;;;;;17.13;45.16;99944.38;10209526;29;20134;-79
2023/10/14 12:13:26;;;;;;;11.43;2.38;;;;;;;14.71;50.51;99952.16;10221843;29;20039;-78
2023/10/14 12:18:54;;;;;;;8.98;1.65;;;;;;;16.03;47.46;99946.00;10216130;29;20047;-80
2023/10/14 12:24:02;;;;;;;9.10;1.98;;;;;;;15.25;47.94;99947.28;10236854;29;20068;-78
2023/10/14 12:29:09;;;;;;;7.82;1.58;;;;;;;15.20;47.30;99958.59;10241918;29;20043;-78
2023/10/14 12:34:13;;;;;;;9.25;1.40;;;;;;;15.92;46.80;99934.50;10210910;29;20044;-80
2023/10/14 12:39:21;;;;;;;4.63;1.30;;;;;;;16.39;44.94;99941.06;10218626;29;20386;-80
2023/10/14 12:44:27;;;;;;;6.38;1.63;;;;;;;17.94;43.53;99953.00;10217487;29;20050;-80
2023/10/14 12:49:30;;;;;;;13.30;2.00;;;;;;;18.31;43.62;99960.31;10228445;29;20035;-80
2023/10/14 12:54:35;;;;;;;6.68;2.03;;;;;;;19.05;41.04;99951.34;10229085;29;20047;-79
2023/10/14 12:59:40;;;;;;;5.05;1.15;;;;;;;18.34;40.94;99968.09;10214844;29;20032;-80
2023/10/14 13:04:44;;;;;;;9.77;2.00;;;;;;;19.22;38.83;99960.97;10230335;29;20047;-80
2023/10/14 13:09:49;;;;;;;5.97;1.08;;;;;;;17.73;40.64;99986.25;10222075;29;20043;-79
2023/10/14 13:14:51;;;;;;;7.53;1.30;;;;;;;16.70;42.73;99956.56;10220714;29;20095;-79
2023/10/14 13:19:54;;;;;;;8.02;1.17;;;;;;;16.67;43.46;99971.31;10226782;29;20052;-79
2023/10/14 13:24:58;;;;;;;5.00;1.10;;;;;;;16.43;42.14;99964.13;10235389;29;20063;-79
2023/10/14 13:30:08;;;;;;;4.97;1.23;;;;;;;15.22;45.89;99980.91;10225757;29;20040;-79
2023/10/14 13:35:15;;;;;;;5.20;1.33;;;;;;;16.39;43.85;99960.03;10224082;29;20147;-79
2023/10/14 13:40:22;;;;;;;14.48;1.58;;;;;;;15.80;46.33;99971.06;10224330;29;20044;-79
2023/10/14 13:45:42;;;;;;;11.25;2.35;;;;;;;14.71;48.26;99980.03;10231062;29;20106;-79
2023/10/14 13:50:46;;;;;;;8.27;1.85;;;;;;;13.89;51.36;99992.94;10233639;29;20056;-79
2023/10/14 13:55:54;;;;;;;7.53;1.60;;;;;;;13.17;53.64;100005.47;10227173;29;20047;-79
2023/10/14 14:01:00;;;;;;;5.75;1.10;;;;;;;12.84;54.58;100017.72;10257213;29;20039;-78
2023/10/14 14:06:06;;;;;;;6.75;1.13;;;;;;;12.81;54.64;100005.38;10268278;29;20044;-78
2023/10/14 14:11:10;;;;;;;8.93;1.42;;;;;;;12.73;53.81;100029.50;10239258;29;20047;-78
2023/10/14 14:16:13;;;;;;;7.75;1.30;;;;;;;12.85;54.87;100032.88;10224334;29;20054;-77
2023/10/14 14:21:16;;;;;;;11.82;1.52;;;;;;;12.85;55.67;100030.16;10216292;29;20048;-79
2023/10/14 14:26:21;;;;;;;6.65;1.30;;;;;;;12.96;55.46;100045.31;10227386;29;20057;-78
2023/10/14 14:31:27;;;;;;;9.63;1.60;;;;;;;13.89;52.67;100043.38;10213694;29;20051;-77
2023/10/14 14:36:30;;;;;;;5.80;1.48;;;;;;;13.37;52.71;100052.09;10226492;29;20498;-78
2023/10/14 14:41:36;;;;;;;5.45;0.90;;;;;;;12.70;52.10;100051.38;10225561;29;20078;-78
2023/10/14 14:46:39;;;;;;;3.90;0.50;;;;;;;12.26;53.95;100067.16;10217849;29;20431;-77
2023/10/14 14:51:42;;;;;;;6.35;1.20;;;;;;;11.06;60.01;100099.47;10211168;29;20492;-78
2023/10/14 14:56:47;;;;;;;1.38;0.35;;;;;;;9.41;67.89;100091.91;10216799;29;20139;-78
2023/10/14 15:01:51;;;;;;;4.95;0.40;;;;;;;11.22;55.32;100064.06;10227144;29;20056;-78
2023/10/14 15:06:56;;;;;;;1.30;0.30;;;;;;;12.95;50.04;100092.16;10230255;29;20043;-78
2023/10/14 15:12:05;;;;;;;1.73;0.30;;;;;;;12.51;52.55;100111.53;10223728;29;20052;-78
2023/10/14 15:17:08;;;;;;;1.95;0.20;;;;;;;11.72;54.46;100114.28;10213169;29;20077;-77
2023/10/14 15:22:11;;;;;;;2.13;0.50;;;;;;;11.62;55.08;100138.47;10226092;29;20451;-78
2023/10/14 15:27:16;;;;;;;2.20;1.23;;;;;;;11.93;54.92;100133.03;10230538;29;20040;-78
2023/10/14 15:32:19;;;;;;;3.30;0.60;;;;;;;11.80;55.59;100133.28;10221624;29;20147;-78
2023/10/14 15:37:24;;;;;;;1.75;0.50;;;;;;;11.40;56.83;100144.91;10226325;29;20580;-78
2023/10/14 15:42:29;;;;;;;4.30;1.10;;;;;;;10.63;58.89;100169.47;10227444;28;20047;-77
2023/10/14 15:47:32;;;;;;;6.45;0.90;;;;;;;10.44;62.18;100169.31;10242010;29;20047;-78
2023/10/14 15:52:35;;;;;;;3.00;0.65;;;;;;;10.37;63.70;100199.38;10233289;29;20053;-77
2023/10/14 15:57:40;;;;;;;4.38;0.70;;;;;;;10.23;64.73;100174.66;10203937;29;20063;-78
2023/10/14 16:02:45;;;;;;;5.97;1.05;;;;;;;10.33;64.58;100162.16;10231378;29;20032;-78
2023/10/14 16:07:50;;;;;;;4.75;0.98;;;;;;;10.43;64.08;100168.47;10237201;29;20039;-78
2023/10/14 16:12:56;;;;;;;2.17;0.63;;;;;;;10.45;63.96;100181.75;10222824;29;20488;-77
2023/10/14 16:17:59;;;;;;;3.22;0.68;;;;;;;10.48;63.47;100185.06;10233544;29;20040;-79
2023/10/14 16:23:03;;;;;;;3.22;0.65;;;;;;;10.53;64.51;100200.78;10231045;29;20767;-78
2023/10/14 16:28:08;;;;;;;3.25;0.82;;;;;;;10.30;65.08;100194.66;10244129;29;20040;-78
2023/10/14 16:33:12;;;;;;;6.20;1.10;;;;;;;10.08;66.34;100185.69;10263596;29;20070;-79
2023/10/14 16:38:15;;;;;;;3.50;0.60;;;;;;;10.00;66.01;100196.19;10252199;29;20454;-79
2023/10/14 16:43:22;;;;;;;6.35;4.25;;;;;;;10.07;65.64;100196.56;10235162;29;20047;-79
2023/10/14 16:48:26;;;;;;;6.43;0.95;;;;;;;10.44;65.56;100201.56;10225642;29;20047;-77
2023/10/14 16:53:29;;;;;;;1.75;0.68;;;;;;;9.85;68.12;100213.50;10228776;29;20054;-78
2023/10/14 16:58:33;;;;;;;2.80;0.70;;;;;;;10.13;68.08;100210.31;10208534;29;20071;-79
2023/10/14 17:03:36;;;;;;;4.82;0.75;;;;;;;9.89;68.82;100217.66;10223971;29;20044;-79
2023/10/14 17:08:41;;;;;;;3.15;0.85;;;;;;;9.66;70.35;100224.88;10232256;29;20529;-78
2023/10/14 17:13:46;;;;;;;6.60;3.50;;;;;;;9.37;71.41;100240.56;10222549;29;20047;-78
2023/10/14 17:18:49;;;;;;;6.18;3.03;;;;;;;9.20;72.25;100253.44;10235172;29;20035;-78
2023/10/14 17:23:52;;;;;;;4.18;1.13;;;;;;;9.24;72.40;100257.63;10232519;29;20051;-78
2023/10/14 17:28:57;;;;;;;6.47;2.20;;;;;;;9.26;72.32;100260.16;10217442;29;20078;-77
2023/10/14 17:34:00;;;;;;;6.53;3.30;;;;;;;9.43;72.01;100265.06;10228820;29;20071;-79
2023/10/14 17:39:05;;;;;;;5.85;1.20;;;;;;;9.39;72.40;100270.78;10217922;29;20048;-79
2023/10/14 17:44:10;;;;;;;10.27;2.22;;;;;;;9.10;73.89;100276.56;10224392;29;20052;-77
2023/10/14 17:49:14;;;;;;;8.23;1.67;;;;;;;9.50;71.87;100287.75;10222126;29;20063;-78
2023/10/14 17:54:17;;;;;;;10.40;2.67;;;;;;;9.31;72.91;100283.94;10236012;29;20043;-77
2023/10/14 17:59:21;;;;;;;5.82;1.73;;;;;;;9.28;72.48;100301.09;10242924;29;20095;-79
2023/10/14 18:04:24;;;;;;;5.47;1.40;;;;;;;9.18;72.71;100303.63;10245937;29;20043;-79
2023/10/14 18:09:27;;;;;;;3.78;1.73;;;;;;;9.50;71.85;100305.66;10224387;29;20495;-79
2023/10/14 18:14:32;;;;;;;6.35;2.03;;;;;;;9.49;71.84;100320.91;10230189;29;20493;-79
2023/10/14 18:19:35;;;;;;;8.32;2.50;;;;;;;9.39;72.15;100330.63;10236502;29;20471;-79
2023/10/14 18:24:38;;;;;;;7.22;2.58;;;;;;;9.37;73.67;100332.56;10233287;29;20043;-77
2023/10/14 18:29:43;;;;;;;5.47;1.80;;;;;;;9.12;72.98;100336.25;10209386;29;20043;-78
2023/10/14 18:34:46;;;;;;;5.57;1.67;;;;;;;8.89;72.16;100345.19;10224723;29;20043;-78
2023/10/14 18:39:49;;;;;;;7.43;1.48;;;;;;;9.35;70.37;100345.25;10217945;29;20128;-81
2023/10/14 18:44:53;;;;;;;11.68;2.83;;;;;;;8.93;71.36;100360.06;10212594;29;20043;-79
2023/10/14 18:49:56;;;;;;;8.20;2.03;;;;;;;8.68;70.46;100351.16;10209343;29;20063;-78
2023/10/14 18:54:59;;;;;;;13.73;2.15;;;;;;;9.07;68.71;100351.81;10203281;29;20052;-78
2023/10/14 19:00:05;;;;;;;10.48;2.97;;;;;;;9.16;68.21;100361.88;10211125;29;20051;-77
2023/10/14 19:05:08;;;;;;;7.35;1.73;;;;;;;8.75;68.95;100362.25;10228896;29;20051;-79
2023/10/14 19:10:14;;;;;;;8.43;1.52;;;;;;;9.16;68.81;100372.59;10232464;29;20056;-77
2023/10/14 19:15:19;;;;;;;7.40;1.60;;;;;;;8.49;72.45;100381.09;10215399;29;20044;-79
2023/10/14 19:20:24;;;;;;;10.75;1.60;;;;;;;8.21;75.10;100381.34;10224500;29;20575;-78
2023/10/14 19:25:27;;;;;;;8.65;1.65;;;;;;;8.18;75.29;100383.25;10222468;29;20046;-79
2023/10/14 19:30:32;;;;;;;12.77;3.40;;;;;;;8.12;75.34;100378.34;10239947;29;20398;-79
2023/10/14 19:35:38;;;;;;;12.13;3.03;;;;;;;8.16;75.85;100389.69;10234339;29;20043;-79
2023/10/14 19:40:42;;;;;;;12.10;2.85;;;;;;;8.21;75.05;100394.72;10216414;29;20044;-78
2023/10/14 19:45:47;;;;;;;11.77;2.00;;;;;;;8.14;74.85;100402.31;10226670;29;20044;-78
2023/10/14 19:50:51;;;;;;;10.82;1.92;;;;;;;7.73;76.32;100409.59;10229523;29;20059;-79
2023/10/14 19:55:54;;;;;;;8.07;2.15;;;;;;;8.05;75.18;100405.66;10223695;29;20122;-79
2023/10/14 20:00:59;;;;;;;8.20;2.15;;;;;;;7.92;74.83;100405.63;10202550;29;20047;-79
2023/10/14 20:06:04;;;;;;;10.10;2.00;;;;;;;8.13;74.03;100408.63;10224291;29;20058;-79
2023/10/14 20:11:08;;;;;;;10.23;2.00;;;;;;;8.11;73.53;100422.09;10206654;29;20057;-78
2023/10/14 20:16:12;;;;;;;13.88;3.03;;;;;;;7.76;74.98;100426.38;10220654;29;20413;-79
2023/10/14 20:21:16;;;;;;;5.72;1.48;;;;;;;8.00;74.43;100431.84;10224760;29;20049;-78
2023/10/14 20:26:19;;;;;;;14.20;1.83;;;;;;;7.69;75.63;100426.81;10224788;29;20103;-78
2023/10/14 20:31:24;;;;;;;8.48;2.38;;;;;;;7.80;74.58;100426.06;10225755;29;20106;-79
2023/10/14 20:36:27;;;;;;;12.02;1.95;;;;;;;7.44;76.73;100438.31;10224725;29;20059;-79
2023/10/14 20:41:30;;;;;;;8.40;1.83;;;;;;;7.44;76.28;100430.28;10228069;29;20046;-79
2023/10/14 20:46:35;;;;;;;6.05;2.05;;;;;;;7.60;76.24;100432.78;10225642;29;20068;-81
2023/10/14 20:51:39;;;;;;;11.25;1.75;;;;;;;7.65;77.22;100438.69;10215818;29;20052;-79
2023/10/14 20:56:42;;;;;;;18.60;3.63;;;;;;;7.76;77.26;100439.75;10212067;29;20044;-79
2023/10/14 21:01:47;;;;;;;18.55;2.47;;;;;;;7.47;78.64;100440.78;10221518;29;20040;-79
2023/10/14 21:06:51;;;;;;;10.93;2.78;;;;;;;7.17;80.42;100446.34;10223866;29;20047;-80
2023/10/14 21:11:56;;;;;;;12.75;2.45;;;;;;;6.81;81.16;100454.91;10207454;29;20087;-78
2023/10/14 21:17:00;;;;;;;10.52;2.30;;;;;;;6.93;81.53;100447.94;10219045;29;20040;-79
2023/10/14 21:22:03;;;;;;;9.75;2.22;;;;;;;7.25;80.24;100448.50;10208385;29;20058;-79
2023/10/14 21:27:08;;;;;;;8.00;1.73;;;;;;;6.74;81.27;100449.09;10197738;29;20056;-79
2023/10/14 21:32:12;;;;;;;10.13;2.33;;;;;;;7.09;80.07;100442.47;10226358;29;20055;-80
2023/10/14 21:37:16;;;;;;;12.60;2.40;;;;;;;7.18;79.50;100448.03;10233169;29;20051;-79
2023/10/14 21:42:20;;;;;;;14.23;2.25;;;;;;;6.69;80.89;100450.34;10231005;29;20043;-80
2023/10/14 21:47:24;;;;;;;11.55;2.08;;;;;;;6.58;80.75;100445.66;10219120;29;20075;-80
2023/10/14 21:52:27;;;;;;;10.93;2.20;;;;;;;6.73;80.50;100438.53;10210536;29;20122;-79
2023/10/14 21:57:32;;;;;;;11.80;1.80;;;;;;;6.87;79.92;100438.50;10217196;29;20055;-80
2023/10/14 22:02:36;;;;;;;8.57;1.30;;;;;;;6.76;79.04;100451.66;10227115;29;20047;-79
2023/10/14 22:07:39;;;;;;;10.43;1.60;;;;;;;6.80;78.75;100434.47;10211740;29;20112;-80
2023/10/14 22:12:44;;;;;;;11.57;1.90;;;;;;;6.92;78.75;100427.53;10200939;29;20056;-79
2023/10/14 22:17:50;;;;;;;7.72;2.00;;;;;;;6.85;78.87;100427.03;10217610;29;20048;-79
2023/10/14 22:22:54;;;;;;;12.65;1.67;;;;;;;6.84;77.92;100420.84;10216995;29;20055;-79
2023/10/14 22:27:58;;;;;;;11.43;2.05;;;;;;;6.62;78.85;100434.72;10246132;29;20027;-80
2023/10/14 22:33:03;;;;;;;13.48;2.55;;;;;;;6.69;78.89;100423.63;10219556;29;20071;-80
2023/10/14 22:38:09;;;;;;;15.10;1.90;;;;;;;6.59;79.24;100429.56;10217531;29;20047;-78
2023/10/14 22:43:14;;;;;;;13.90;2.65;;;;;;;6.74;78.10;100438.41;10209967;29;20118;-79
2023/10/14 22:48:20;;;;;;;9.45;1.65;;;;;;;6.59;78.91;100439.41;10220778;29;20067;-81
2023/10/14 22:53:25;;;;;;;14.23;1.88;;;;;;;6.31;79.82;100443.81;10218477;29;20075;-80
2023/10/14 22:58:29;;;;;;;10.85;1.90;;;;;;;6.54;79.72;100444.16;10215557;29;20115;-78
2023/10/14 23:03:34;;;;;;;17.27;1.73;;;;;;;6.43;79.89;100444.00;10224253;29;20063;-78
2023/10/14 23:08:37;;;;;;;13.43;3.05;;;;;;;6.10;81.51;100448.66;10210180;29;20050;-80
2023/10/14 23:13:40;;;;;;;10.10;1.40;;;;;;;6.13;80.94;100448.47;10204371;29;20501;-79
2023/10/14 23:18:48;;;;;;;9.55;1.80;;;;;;;6.28;80.45;100452.00;10232773;29;20043;-79
2023/10/14 23:23:55;;;;;;;7.85;1.35;;;;;;;6.38;79.93;100450.47;10229559;29;20059;-78
2023/10/14 23:28:59;;;;;;;14.70;2.67;;;;;;;6.37;79.63;100454.09;10232607;29;20060;-81
2023/10/14 23:34:05;;;;;;;9.68;2.10;;;;;;;6.49;79.58;100462.28;10207222;29;20182;-81
2023/10/14 23:39:16;;;;;;;4.80;0.85;;;;;;;6.17;79.92;100460.66;10225715;29;20071;-80
2023/10/14 23:44:20;;;;;;;9.50;2.28;;;;;;;6.20;80.73;100464.06;10217824;29;20048;-80